Time;durP1;ratioP1;P1;durP2;ratioP2;P2;SDS_P1;SDS_P2;PMS_P1;PMS_P2;Temp;Humidity;BMP_temperature;BMP_pressure;BME280_temperature;BME280_humidity;BME280_pressure;Samples;Min_cycle;Max_cycle;Signal;HPM_P1;HPM_P2
2022/09/20 00:02:04;;;;;;;2.38;1.10;;;18.10;67.80;;;;;;10091231;29;20116;-55
2022/09/20 00:07:05;;;;;;;2.22;1.35;;;18.10;67.20;;;;;;10073307;29;20049;-56
2022/09/20 00:12:07;;;;;;;3.42;0.95;;;18.00;67.10;;;;;;10090983;29;20040;-56
2022/09/20 00:17:07;;;;;;;2.78;1.25;;;18.00;67.10;;;;;;10076185;29;20025;-56
2022/09/20 00:22:08;;;;;;;2.67;0.90;;;18.00;67.10;;;;;;10095250;29;20127;-56
2022/09/20 00:27:09;;;;;;;4.00;1.00;;;18.00;67.00;;;;;;10089300;29;20073;-55
2022/09/20 00:32:09;;;;;;;3.00;0.82;;;18.00;67.10;;;;;;10089250;29;20072;-55
2022/09/20 00:37:10;;;;;;;1.10;0.60;;;18.00;67.00;;;;;;10089366;29;20124;-56
2022/09/20 00:42:13;;;;;;;1.95;1.20;;;18.10;67.00;;;;;;10089092;29;20496;-56
2022/09/20 00:47:36;;;;;;;2.22;0.85;;;18.00;66.90;;;;;;10071913;29;20037;-57
2022/09/20 00:52:37;;;;;;;2.33;0.70;;;18.00;66.80;;;;;;10088766;29;20102;-55
2022/09/20 00:57:38;;;;;;;1.55;0.80;;;18.00;66.80;;;;;;10088368;29;20045;-57
2022/09/20 01:02:48;;;;;;;1.45;0.47;;;18.00;66.80;;;;;;10071850;29;20089;-56
2022/09/20 01:07:50;;;;;;;2.42;1.20;;;18.00;66.80;;;;;;10071628;29;20065;-55
2022/09/20 01:12:52;;;;;;;2.55;0.70;;;18.00;66.80;;;;;;10070934;29;20037;-55
2022/09/20 01:17:56;;;;;;;2.47;0.63;;;18.00;66.80;;;;;;10096748;29;20135;-55
2022/09/20 01:23:25;;;;;;;2.72;1.10;;;18.00;66.80;;;;;;10074763;29;20414;-56
2022/09/20 01:28:27;;;;;;;2.78;0.60;;;18.00;66.80;;;;;;10087774;29;20033;-56
2022/09/20 01:33:54;;;;;;;1.75;0.82;;;18.00;66.80;;;;;;10070911;29;20592;-56
2022/09/20 01:39:37;;;;;;;1.88;0.68;;;18.00;66.70;;;;;;10086638;29;20064;-56
2022/09/20 01:44:56;;;;;;;3.38;1.00;;;18.00;66.70;;;;;;10087076;29;20049;-56
2022/09/20 01:50:15;;;;;;;3.35;1.23;;;18.00;66.70;;;;;;10087239;29;20376;-56
2022/09/20 01:56:00;;;;;;;2.38;1.02;;;18.00;66.80;;;;;;10086184;29;20136;-56
2022/09/20 02:01:30;;;;;;;2.65;1.00;;;18.00;66.70;;;;;;10072031;29;20025;-56
2022/09/20 02:06:46;;;;;;;;;;;18.00;66.70;;;;;;10087077;29;20049;-56
2022/09/20 02:12:36;;;;;;;2.38;0.80;;;18.00;66.60;;;;;;10086819;29;19904;-55
2022/09/20 02:18:15;;;;;;;1.05;0.65;;;18.00;66.60;;;;;;10075844;29;20026;-55
2022/09/20 02:23:56;;;;;;;2.25;0.60;;;17.90;66.60;;;;;;10094403;29;20082;-56
2022/09/20 02:29:18;;;;;;;2.53;0.60;;;17.90;66.60;;;;;;10094007;29;20057;-56
2022/09/20 02:34:37;;;;;;;2.08;0.88;;;17.90;66.60;;;;;;10093815;29;20041;-56
2022/09/20 02:40:19;;;;;;;2.63;1.00;;;17.90;66.50;;;;;;10094048;29;20128;-55
2022/09/20 02:45:34;;;;;;;2.20;0.55;;;17.90;66.50;;;;;;10093293;29;20037;-56
2022/09/20 02:51:02;;;;;;;1.75;0.77;;;17.90;66.50;;;;;;10077499;29;20037;-55
2022/09/20 02:56:28;;;;;;;1.38;0.70;;;17.90;66.50;;;;;;10092522;29;20113;-56
2022/09/20 03:01:49;;;;;;;3.53;0.98;;;17.90;66.50;;;;;;10092959;29;20048;-56
2022/09/20 03:07:20;;;;;;;2.78;0.60;;;17.90;66.40;;;;;;10092507;29;20035;-56
2022/09/20 03:13:06;;;;;;;1.75;1.00;;;17.90;66.50;;;;;;10092040;29;20044;-56
2022/09/20 03:18:15;;;;;;;1.63;0.57;;;17.90;66.50;;;;;;10087760;29;20044;-56
2022/09/20 03:23:43;;;;;;;2.85;0.60;;;17.90;66.50;;;;;;10075084;29;20045;-56
2022/09/20 03:29:14;;;;;;;3.05;0.55;;;17.90;66.40;;;;;;10090199;29;20041;-55
2022/09/20 03:34:24;;;;;;;1.80;0.73;;;17.90;66.40;;;;;;10076808;29;20418;-54
2022/09/20 03:39:39;;;;;;;1.38;0.85;;;17.90;66.40;;;;;;10091366;29;20080;-56
2022/09/20 03:45:11;;;;;;;1.08;0.70;;;17.90;66.40;;;;;;10074540;29;20493;-56
2022/09/20 03:50:53;;;;;;;1.35;0.77;;;17.90;66.40;;;;;;10091079;29;20029;-56
2022/09/20 03:56:28;;;;;;;1.45;0.70;;;17.90;66.30;;;;;;10090684;29;20052;-55
2022/09/20 04:02:44;;;;;;;1.92;0.75;;;17.90;66.30;;;;;;10090414;29;20045;-56
2022/09/20 04:08:11;;;;;;;2.17;0.75;;;17.90;66.30;;;;;;9970500;29;20049;-56
2022/09/20 04:13:25;;;;;;;0.82;0.57;;;17.90;66.30;;;;;;10066922;29;20129;-56
2022/09/20 04:18:44;;;;;;;1.70;0.47;;;17.80;66.30;;;;;;10074416;29;20037;-56
2022/09/20 04:24:22;;;;;;;1.90;0.53;;;17.80;66.30;;;;;;10089488;29;20134;-56
2022/09/20 04:29:54;;;;;;;2.33;0.80;;;17.80;66.30;;;;;;10073536;29;20040;-56
2022/09/20 04:40:54;;;;;;;1.05;0.45;;;17.80;66.40;;;;;;10077395;29;20037;-55
2022/09/20 04:46:23;;;;;;;1.70;0.73;;;17.80;66.30;;;;;;10088483;29;20137;-55
2022/09/20 04:51:57;;;;;;;2.35;0.70;;;17.80;66.30;;;;;;10088728;29;20036;-56
2022/09/20 04:57:26;;;;;;;5.85;0.90;;;17.80;66.20;;;;;;10086249;29;20120;-56
2022/09/20 05:03:29;;;;;;;3.22;0.80;;;17.80;67.00;;;;;;10086225;29;20072;-56
2022/09/20 05:08:47;;;;;;;4.32;0.88;;;17.90;66.90;;;;;;10088068;29;20072;-56
2022/09/20 05:14:39;;;;;;;9.77;1.50;;;17.90;67.30;;;;;;10085762;29;20040;-55
2022/09/20 05:20:15;;;;;;;6.13;1.20;;;18.10;67.50;;;;;;10096579;29;20041;-55
2022/09/20 05:26:11;;;;;;;8.57;1.30;;;18.10;67.80;;;;;;10082363;29;20072;-56
2022/09/20 05:32:10;;;;;;;6.80;1.13;;;18.10;67.80;;;;;;9972257;29;20037;-54
2022/09/20 05:37:58;;;;;;;6.68;1.90;;;18.10;68.10;;;;;;10060443;29;20659;-55
2022/09/20 05:43:10;;;;;;;13.57;1.55;;;18.10;68.20;;;;;;10082800;29;20109;-54
2022/09/20 05:48:23;;;;;;;4.68;1.20;;;18.00;67.80;;;;;;10085065;29;20029;-50
2022/09/20 05:53:45;;;;;;;8.95;2.20;;;17.90;68.00;;;;;;10070581;29;20041;-54
2022/09/20 05:59:09;;;;;;;7.03;1.50;;;17.90;67.70;;;;;;10074493;29;20088;-54
2022/09/20 06:04:30;;;;;;;7.45;1.98;;;17.90;67.70;;;;;;10071809;29;20885;-53
2022/09/20 06:10:12;;;;;;;12.70;1.80;;;17.90;67.70;;;;;;10065177;29;20051;-55
2022/09/20 06:15:26;;;;;;;10.18;2.30;;;17.90;67.70;;;;;;10090320;29;20037;-54
2022/09/20 06:21:05;;;;;;;8.13;1.83;;;17.90;67.70;;;;;;10096050;29;20045;-53
2022/09/20 06:26:22;;;;;;;7.97;1.45;;;17.80;67.60;;;;;;10085942;29;20041;-54
2022/09/20 06:31:23;;;;;;;7.57;1.85;;;17.80;67.50;;;;;;10069995;29;20041;-55
2022/09/20 06:41:56;;;;;;;7.88;1.45;;;17.80;67.40;;;;;;10085058;29;20057;-55
2022/09/20 06:46:57;;;;;;;5.93;2.03;;;17.80;67.80;;;;;;10082633;29;20581;-54
2022/09/20 06:51:58;;;;;;;4.65;1.40;;;17.80;68.20;;;;;;10069111;29;20100;-54
2022/09/20 06:57:04;;;;;;;7.15;1.83;;;17.80;67.40;;;;;;10053391;29;20097;-55
2022/09/20 07:02:05;;;;;;;4.50;1.20;;;17.90;67.80;;;;;;10074673;29;20057;-55
2022/09/20 07:07:07;;;;;;;4.50;1.27;;;17.90;68.50;;;;;;10094216;29;20078;-55
2022/09/20 07:12:10;;;;;;;6.30;1.13;;;18.00;69.40;;;;;;10091857;29;20088;-55
2022/09/20 07:17:12;;;;;;;4.70;1.30;;;17.90;69.70;;;;;;10095031;29;20037;-55
2022/09/20 07:22:13;;;;;;;6.15;2.15;;;17.90;70.70;;;;;;10095950;29;20144;-55
2022/09/20 07:27:14;;;;;;;10.02;1.70;;;17.90;69.30;;;;;;10091768;29;20033;-54
2022/09/20 07:32:16;;;;;;;4.80;1.60;;;17.80;68.90;;;;;;10091635;29;20116;-54
2022/09/20 07:37:18;;;;;;;5.40;1.15;;;17.80;68.60;;;;;;10091472;29;20064;-54
2022/09/20 07:42:19;;;;;;;4.03;1.10;;;17.80;68.30;;;;;;10095787;29;20760;-55
2022/09/20 07:47:20;;;;;;;3.72;1.05;;;17.80;68.20;;;;;;10091465;29;20089;-54
2022/09/20 07:52:21;;;;;;;5.18;1.10;;;17.80;68.20;;;;;;10091296;29;20125;-55
2022/09/20 07:57:21;;;;;;;3.00;0.90;;;17.80;68.00;;;;;;10090657;29;20159;-55
2022/09/20 08:02:22;;;;;;;4.28;1.50;;;17.70;68.00;;;;;;10090664;29;20135;-55
2022/09/20 08:07:23;;;;;;;7.95;2.88;;;17.80;67.90;;;;;;10090540;29;20097;-55
2022/09/20 08:12:25;;;;;;;4.85;1.50;;;17.80;68.30;;;;;;10089697;29;20059;-55
2022/09/20 08:17:26;;;;;;;7.72;1.58;;;17.80;68.10;;;;;;10078410;29;20049;-55
2022/09/20 08:22:27;;;;;;;2.67;1.23;;;17.90;68.10;;;;;;10093762;29;20037;-55
2022/09/20 08:27:28;;;;;;;4.18;1.17;;;17.90;68.00;;;;;;10078828;29;20071;-57
2022/09/20 08:32:28;;;;;;;5.88;1.00;;;17.90;68.00;;;;;;10073074;29;20113;-55
2022/09/20 08:37:29;;;;;;;3.20;0.82;;;17.90;68.00;;;;;;10072169;29;20047;-57
2022/09/20 08:42:37;;;;;;;4.38;1.20;;;17.90;68.00;;;;;;10089323;29;20153;-58
2022/09/20 08:47:52;;;;;;;4.25;0.98;;;17.90;68.70;;;;;;10072511;29;20397;-56
2022/09/20 08:52:56;;;;;;;4.13;1.17;;;17.90;68.30;;;;;;10071131;29;20699;-57
2022/09/20 08:57:59;;;;;;;2.22;0.70;;;17.90;68.10;;;;;;10084446;29;20041;-56
2022/09/20 09:03:05;;;;;;;4.47;0.70;;;17.80;68.10;;;;;;10068551;29;20037;-56
2022/09/20 09:08:17;;;;;;;3.83;0.70;;;17.80;68.20;;;;;;10068967;29;20025;-56
2022/09/20 09:13:33;;;;;;;7.03;1.63;;;17.80;68.70;;;;;;10070042;29;20029;-56
2022/09/20 09:18:39;;;;;;;4.38;0.80;;;17.80;68.10;;;;;;10095940;29;20029;-55
2022/09/20 09:24:00;;;;;;;2.53;1.15;;;17.80;68.10;;;;;;10053155;29;20423;-56
2022/09/20 09:29:23;;;;;;;3.20;1.00;;;17.80;68.10;;;;;;10070845;29;20391;-56
2022/09/20 09:34:37;;;;;;;3.75;0.80;;;17.70;68.00;;;;;;10068614;29;20033;-56
2022/09/20 09:39:39;;;;;;;1.65;0.70;;;17.70;68.00;;;;;;10084791;29;20043;-56
2022/09/20 09:44:40;;;;;;;1.65;0.68;;;17.70;68.00;;;;;;10085020;29;20047;-56
2022/09/20 09:49:56;;;;;;;2.35;0.73;;;17.70;67.90;;;;;;10084767;29;20033;-56
2022/09/20 09:54:58;;;;;;;1.67;0.63;;;17.70;68.00;;;;;;10067758;29;20110;-56
2022/09/20 10:00:18;;;;;;;3.35;0.90;;;17.70;68.00;;;;;;10084573;29;20044;-55
2022/09/20 10:05:40;;;;;;;2.13;0.65;;;17.80;68.10;;;;;;10067548;29;20468;-56
2022/09/20 10:11:18;;;;;;;3.50;0.88;;;17.80;68.10;;;;;;10067613;29;20021;-56
2022/09/20 10:17:02;;;;;;;2.83;0.60;;;17.90;67.90;;;;;;10084201;29;20036;-55
2022/09/20 10:22:11;;;;;;;1.52;0.50;;;17.90;67.80;;;;;;10075259;29;20517;-57
2022/09/20 10:27:43;;;;;;;3.17;1.10;;;17.90;67.70;;;;;;10084424;29;20033;-57
2022/09/20 10:33:07;;;;;;;1.98;0.90;;;17.90;67.70;;;;;;10083735;29;20053;-56
2022/09/20 10:38:21;;;;;;;2.70;0.90;;;17.90;67.60;;;;;;10075149;29;20059;-56
2022/09/20 10:43:54;;;;;;;2.47;1.10;;;17.90;67.70;;;;;;10075191;29;20169;-56
2022/09/20 10:49:34;;;;;;;2.42;1.13;;;17.90;67.70;;;;;;10076355;29;20545;-56
2022/09/20 10:55:07;;;;;;;;;;;17.90;67.70;;;;;;10075810;29;20177;-57
2022/09/20 11:00:30;;;;;;;2.50;1.02;;;17.90;67.70;;;;;;10087355;29;20360;-57
2022/09/20 11:05:54;;;;;;;2.95;0.50;;;17.90;67.70;;;;;;10076152;29;20099;-55
2022/09/20 11:11:02;;;;;;;2.05;0.70;;;17.90;67.70;;;;;;10083105;29;20116;-55
2022/09/20 11:16:22;;;;;;;2.97;0.63;;;17.90;67.60;;;;;;10076101;29;20105;-55
2022/09/20 11:21:57;;;;;;;1.73;0.70;;;17.90;67.20;;;;;;10085090;29;20108;-55
2022/09/20 11:27:20;;;;;;;2.58;0.90;;;17.90;67.00;;;;;;10108797;29;20052;-55
2022/09/20 11:32:41;;;;;;;1.90;0.95;;;17.90;67.10;;;;;;10095952;29;20096;-55
2022/09/20 11:37:51;;;;;;;1.77;0.52;;;18.00;67.10;;;;;;10082294;29;20122;-55
2022/09/20 11:42:55;;;;;;;3.47;0.70;;;17.90;67.20;;;;;;10079419;29;20056;-54
2022/09/20 11:48:03;;;;;;;3.00;0.80;;;18.00;67.20;;;;;;10073126;29;20025;-55
2022/09/20 11:53:40;;;;;;;0.70;0.45;;;18.00;67.20;;;;;;10069746;29;20033;-56
2022/09/20 11:58:57;;;;;;;2.92;0.70;;;18.00;67.20;;;;;;10089459;29;20053;-56
2022/09/20 12:04:22;;;;;;;3.38;0.63;;;18.00;67.20;;;;;;10090520;29;20364;-55
2022/09/20 12:09:38;;;;;;;2.13;0.50;;;18.00;67.30;;;;;;10075218;29;20029;-56
2022/09/20 12:14:39;;;;;;;2.25;0.80;;;17.90;67.30;;;;;;10074994;29;20463;-56
2022/09/20 12:19:39;;;;;;;8.57;1.42;;;17.90;67.50;;;;;;10086294;29;20065;-49
2022/09/20 12:24:40;;;;;;;15.30;2.13;;;18.10;67.30;;;;;;10087772;29;20128;-52
2022/09/20 12:29:46;;;;;;;25.33;2.80;;;18.10;67.60;;;;;;10087968;29;20428;-54
2022/09/20 12:34:47;;;;;;;32.92;4.15;;;18.10;67.50;;;;;;10084783;29;20037;-53
2022/09/20 12:39:54;;;;;;;26.48;3.25;;;18.10;67.80;;;;;;10086555;29;20029;-55
2022/09/20 12:45:00;;;;;;;25.50;3.97;;;18.10;67.80;;;;;;10088834;29;20045;-53
2022/09/20 12:56:04;;;;;;;23.85;4.88;;;18.10;68.20;;;;;;10087972;29;20558;-57
2022/09/20 13:01:04;;;;;;;14.93;2.80;;;18.20;68.70;;;;;;10081348;29;20478;-51
2022/09/20 13:06:09;;;;;;;18.25;3.63;;;18.20;68.10;;;;;;10087456;29;20049;-51
2022/09/20 13:11:19;;;;;;;19.88;3.75;;;18.20;67.90;;;;;;10088353;29;20743;-54
2022/09/20 13:16:29;;;;;;;26.98;4.53;;;18.20;68.00;;;;;;10071977;29;20767;-55
2022/09/20 13:21:33;;;;;;;28.52;4.07;;;18.10;68.10;;;;;;10071163;29;20729;-55
2022/09/20 13:26:44;;;;;;;22.92;4.50;;;18.20;68.40;;;;;;10070365;29;20052;-55
2022/09/20 13:31:44;;;;;;;44.03;8.80;;;18.20;68.00;;;;;;10083172;29;20025;-55
2022/09/20 13:36:46;;;;;;;51.55;8.65;;;18.20;68.30;;;;;;10086828;29;20061;-53
2022/09/20 13:41:49;;;;;;;54.00;10.20;;;18.20;68.70;;;;;;10077089;29;20382;-52
2022/09/20 13:46:49;;;;;;;55.47;10.40;;;18.20;68.80;;;;;;10086163;29;20116;-55
2022/09/20 13:51:50;;;;;;;32.17;8.23;;;18.20;68.50;;;;;;10070467;29;20041;-56
2022/09/20 13:56:52;;;;;;;41.40;7.85;;;18.20;68.40;;;;;;10086745;29;20049;-55
2022/09/20 14:01:54;;;;;;;30.10;6.57;;;18.20;68.20;;;;;;10069853;29;20029;-55
2022/09/20 14:06:57;;;;;;;36.75;7.03;;;18.20;67.80;;;;;;10086716;29;20116;-56
2022/09/20 14:11:59;;;;;;;32.30;7.00;;;18.20;67.30;;;;;;10081512;29;20108;-56
2022/09/20 14:17:04;;;;;;;39.67;6.97;;;18.30;67.60;;;;;;10101798;29;20259;-56
2022/09/20 14:22:05;;;;;;;29.00;6.13;;;18.20;67.10;;;;;;10104949;29;20068;-57
2022/09/20 14:27:19;;;;;;;16.13;3.15;;;18.20;67.80;;;;;;10081942;29;20066;-55
2022/09/20 14:32:20;;;;;;;18.08;3.97;;;18.20;66.00;;;;;;10080258;29;20822;-56
2022/09/20 14:37:45;;;;;;;16.55;3.95;;;18.20;65.90;;;;;;10097321;29;20037;-55
2022/09/20 14:42:49;;;;;;;19.55;2.90;;;18.20;65.10;;;;;;10072843;29;20826;-56
2022/09/20 14:47:58;;;;;;;15.43;3.25;;;18.10;64.10;;;;;;10081073;29;20029;-56
2022/09/20 14:53:13;;;;;;;21.55;3.17;;;18.20;64.60;;;;;;10096762;29;20120;-56
2022/09/20 14:58:14;;;;;;;13.95;2.70;;;18.20;64.80;;;;;;10095086;29;20110;-57
2022/09/20 15:03:22;;;;;;;13.00;3.25;;;18.20;64.80;;;;;;10098498;29;20045;-56
2022/09/20 15:08:23;;;;;;;11.00;3.30;;;18.20;65.10;;;;;;10095670;29;20430;-56
2022/09/20 15:13:24;;;;;;;23.85;4.18;;;18.10;65.20;;;;;;10081449;29;20029;-55
2022/09/20 15:18:29;;;;;;;27.15;4.10;;;18.10;65.40;;;;;;10079283;29;20044;-56
2022/09/20 15:23:30;;;;;;;24.23;5.63;;;18.10;66.10;;;;;;10092372;29;20413;-56
2022/09/20 15:28:33;;;;;;;25.85;4.50;;;18.20;65.50;;;;;;10090477;29;20065;-55
2022/09/20 15:33:33;;;;;;;27.83;4.10;;;18.10;65.50;;;;;;10075296;29;20474;-56
2022/09/20 15:38:34;;;;;;;19.75;3.70;;;18.10;65.50;;;;;;10091113;29;20075;-54
2022/09/20 15:43:35;;;;;;;23.95;5.32;;;18.10;65.90;;;;;;10088910;29;20041;-56
2022/09/20 15:48:36;;;;;;;32.85;13.65;;;18.30;69.40;;;;;;10088504;29;20090;-56
2022/09/20 15:53:43;;;;;;;34.00;11.98;;;18.50;70.80;;;;;;10056195;29;20719;-54
2022/09/20 15:58:50;;;;;;;41.25;12.93;;;18.70;69.80;;;;;;10085096;29;20056;-56
2022/09/20 16:03:50;;;;;;;35.97;13.95;;;18.80;69.70;;;;;;10079280;29;20037;-56
2022/09/20 16:08:51;;;;;;;38.63;14.10;;;18.90;70.50;;;;;;10070863;29;20113;-57
2022/09/20 16:13:57;;;;;;;30.50;11.77;;;19.00;70.20;;;;;;10072484;29;20037;-57
2022/09/20 16:19:18;;;;;;;22.95;8.02;;;18.90;71.00;;;;;;10072762;29;20049;-56
2022/09/20 16:24:26;;;;;;;29.00;9.60;;;18.90;70.40;;;;;;10078722;29;20096;-57
2022/09/20 16:29:29;;;;;;;35.67;9.90;;;18.80;69.90;;;;;;10072773;29;20034;-56
2022/09/20 16:34:35;;;;;;;24.95;8.02;;;18.80;69.80;;;;;;10069144;29;20070;-56
2022/09/20 16:39:36;;;;;;;19.58;7.97;;;18.80;70.00;;;;;;10108836;29;20185;-56
2022/09/20 16:44:40;;;;;;;26.60;8.75;;;18.70;69.60;;;;;;10088639;29;20049;-57
2022/09/20 16:49:41;;;;;;;32.10;9.55;;;18.60;70.10;;;;;;10096110;29;20112;-57
2022/09/20 16:54:42;;;;;;;22.83;7.80;;;18.60;70.10;;;;;;10070264;29;20053;-57
2022/09/20 16:59:43;;;;;;;42.92;7.85;;;18.60;70.30;;;;;;10086987;29;20514;-57
2022/09/20 17:04:43;;;;;;;42.35;9.10;;;18.50;70.00;;;;;;10087112;29;20149;-56
2022/09/20 17:09:44;;;;;;;56.72;11.57;;;18.60;70.10;;;;;;10086976;29;20060;-55
2022/09/20 17:14:45;;;;;;;38.67;8.57;;;18.60;70.30;;;;;;10085708;29;20060;-56
2022/09/20 17:19:46;;;;;;;29.95;6.85;;;18.50;70.20;;;;;;10094559;29;20120;-55
2022/09/20 17:24:46;;;;;;;25.02;7.05;;;18.60;69.90;;;;;;10065674;29;20585;-56
2022/09/20 17:29:47;;;;;;;31.38;8.05;;;18.60;69.70;;;;;;10078970;29;20064;-56
2022/09/20 17:34:47;;;;;;;26.00;7.97;;;18.50;69.70;;;;;;10058295;29;20132;-56
2022/09/20 17:39:49;;;;;;;29.05;6.40;;;18.50;69.70;;;;;;10068267;29;20108;-56
2022/09/20 17:44:49;;;;;;;33.92;8.02;;;18.50;69.80;;;;;;10077703;29;20714;-56
2022/09/20 17:49:50;;;;;;;38.65;7.65;;;18.50;69.40;;;;;;10079803;29;20149;-56
2022/09/20 17:54:51;;;;;;;32.60;9.52;;;18.50;69.50;;;;;;10032110;29;1027346;-56
2022/09/20 17:59:52;;;;;;;22.52;5.43;;;18.50;69.60;;;;;;10068484;29;20098;-56
2022/09/20 18:04:52;;;;;;;24.88;7.95;;;18.50;69.70;;;;;;10083236;29;20719;-56
2022/09/20 18:09:53;;;;;;;22.77;6.43;;;18.40;69.80;;;;;;10066327;29;20092;-56
2022/09/20 18:14:55;;;;;;;21.60;6.28;;;18.40;69.70;;;;;;10085788;29;20057;-56
2022/09/20 18:19:56;;;;;;;26.60;10.32;;;18.40;69.80;;;;;;10087832;29;20087;-57
2022/09/20 18:24:57;;;;;;;29.27;8.95;;;18.50;70.00;;;;;;10085816;29;20127;-56
2022/09/20 18:29:57;;;;;;;18.73;6.75;;;18.60;69.60;;;;;;10060924;29;20566;-56
2022/09/20 18:34:58;;;;;;;26.23;9.05;;;18.60;69.60;;;;;;10082953;29;20076;-57
2022/09/20 18:39:59;;;;;;;19.25;6.50;;;18.70;69.60;;;;;;10067542;29;20124;-57
2022/09/20 18:44:59;;;;;;;15.88;7.00;;;18.70;69.50;;;;;;10082257;29;20389;-56
2022/09/20 18:50:00;;;;;;;14.50;7.50;;;18.70;69.60;;;;;;10081702;29;20101;-57
2022/09/20 18:55:01;;;;;;;21.67;7.07;;;18.70;69.30;;;;;;10084840;29;20044;-55
2022/09/20 19:00:03;;;;;;;24.45;6.57;;;18.60;69.50;;;;;;10069932;29;20500;-57
2022/09/20 19:05:37;;;;;;;19.20;7.03;;;18.70;69.50;;;;;;10074853;29;20045;-56
2022/09/20 19:11:01;;;;;;;14.88;8.32;;;18.70;69.30;;;;;;10086876;29;20121;-56
2022/09/20 19:16:17;;;;;;;19.50;7.32;;;18.70;69.30;;;;;;10090002;29;20033;-56
2022/09/20 19:21:57;;;;;;;17.48;7.28;;;18.70;69.50;;;;;;10088464;29;20128;-57
2022/09/20 19:26:58;;;;;;;18.48;7.35;;;18.60;70.00;;;;;;10072135;29;20565;-57
2022/09/20 19:31:59;;;;;;;14.50;7.22;;;18.70;69.40;;;;;;10087106;29;20081;-57
2022/09/20 19:37:18;;;;;;;13.27;7.35;;;18.60;69.40;;;;;;10091851;29;20369;-56
2022/09/20 19:42:43;;;;;;;13.90;7.53;;;18.60;69.30;;;;;;10089997;29;20069;-56
2022/09/20 19:48:08;;;;;;;15.52;6.15;;;18.60;69.20;;;;;;10074683;29;20029;-57
2022/09/20 19:53:09;;;;;;;14.27;6.13;;;18.50;69.00;;;;;;10074161;29;20056;-57
2022/09/20 19:58:10;;;;;;;13.90;6.38;;;18.50;69.00;;;;;;10057995;29;20060;-57
2022/09/20 20:03:12;;;;;;;11.98;6.07;;;18.50;69.00;;;;;;10089536;29;20072;-56
2022/09/20 20:08:39;;;;;;;11.10;5.72;;;18.40;68.80;;;;;;10074142;29;20033;-57
2022/09/20 20:14:02;;;;;;;10.23;5.30;;;18.40;68.60;;;;;;10091123;29;20040;-56
2022/09/20 20:19:24;;;;;;;14.43;5.57;;;18.40;68.60;;;;;;10089345;29;20040;-57
2022/09/20 20:24:58;;;;;;;9.48;5.50;;;18.40;68.50;;;;;;10090085;29;20052;-55
2022/09/20 20:29:59;;;;;;;8.50;4.82;;;18.30;68.40;;;;;;10080533;29;20041;-57
2022/09/20 20:34:59;;;;;;;13.88;5.60;;;18.30;68.40;;;;;;10073114;29;20041;-57
2022/09/20 20:40:01;;;;;;;12.80;4.72;;;18.30;68.30;;;;;;10072665;29;20113;-57
2022/09/20 20:45:02;;;;;;;11.68;5.35;;;18.40;68.30;;;;;;10087768;29;20049;-57
2022/09/20 20:50:03;;;;;;;11.40;4.40;;;18.30;68.10;;;;;;10089220;29;20033;-57
2022/09/20 20:55:05;;;;;;;8.98;3.92;;;18.30;68.00;;;;;;10072002;29;20056;-56
2022/09/20 21:00:06;;;;;;;6.50;3.58;;;18.30;67.90;;;;;;10099064;29;20112;-57
2022/09/20 21:05:07;;;;;;;7.38;4.03;;;18.30;67.90;;;;;;10087057;29;20140;-57
2022/09/20 21:10:08;;;;;;;10.38;4.95;;;18.30;67.80;;;;;;10087558;29;20029;-57
2022/09/20 21:15:10;;;;;;;7.55;3.47;;;18.30;67.70;;;;;;10087816;29;20389;-57
2022/09/20 21:20:11;;;;;;;7.25;3.28;;;18.30;67.70;;;;;;10095625;29;20033;-56
2022/09/20 21:25:12;;;;;;;6.90;3.78;;;18.30;67.60;;;;;;10070861;29;20181;-56
2022/09/20 21:30:13;;;;;;;8.50;3.20;;;18.30;67.60;;;;;;10087127;29;20112;-56
2022/09/20 21:35:13;;;;;;;5.05;2.90;;;18.30;67.50;;;;;;10070466;29;20037;-57
2022/09/20 21:40:14;;;;;;;5.97;3.20;;;18.30;67.50;;;;;;10086876;29;20377;-57
2022/09/20 21:45:18;;;;;;;7.22;2.88;;;18.30;68.10;;;;;;10070003;29;20048;-57
2022/09/20 21:50:19;;;;;;;7.35;2.88;;;18.30;67.40;;;;;;10085926;29;20139;-56
2022/09/20 21:55:20;;;;;;;4.38;2.42;;;18.30;67.40;;;;;;10069067;29;20048;-57
2022/09/20 22:00:21;;;;;;;4.55;3.13;;;18.20;67.30;;;;;;10069786;29;20104;-57
2022/09/20 22:05:21;;;;;;;5.07;2.33;;;18.30;67.40;;;;;;10069179;29;20136;-57
2022/09/20 22:10:23;;;;;;;7.28;2.60;;;18.30;67.30;;;;;;10069754;29;20479;-57
2022/09/20 22:15:23;;;;;;;4.10;2.35;;;18.30;67.20;;;;;;10069342;29;20033;-56
2022/09/20 22:20:24;;;;;;;4.32;2.80;;;18.20;67.10;;;;;;10095768;29;20089;-57
2022/09/20 22:25:25;;;;;;;4.43;2.72;;;18.20;67.10;;;;;;10069346;29;20126;-56
2022/09/20 22:30:26;;;;;;;3.65;2.10;;;18.30;67.10;;;;;;10071915;29;20158;-57
2022/09/20 22:35:26;;;;;;;4.38;2.70;;;18.20;67.00;;;;;;10093189;29;20065;-57
2022/09/20 22:40:27;;;;;;;4.28;2.05;;;18.20;67.00;;;;;;10077166;29;20469;-56
2022/09/20 22:45:28;;;;;;;4.07;2.00;;;18.20;67.00;;;;;;10092240;29;20489;-56
2022/09/20 22:50:28;;;;;;;4.55;2.00;;;18.20;66.90;;;;;;10093178;29;20033;-57
2022/09/20 22:55:30;;;;;;;4.13;2.38;;;18.20;66.90;;;;;;10091907;29;20095;-57
2022/09/20 23:00:31;;;;;;;8.85;3.28;;;18.20;66.80;;;;;;10092697;29;20037;-57
2022/09/20 23:05:32;;;;;;;3.50;1.67;;;18.20;66.80;;;;;;10091392;29;20049;-57
2022/09/20 23:10:32;;;;;;;3.90;2.00;;;18.20;66.80;;;;;;10090521;29;20136;-57
2022/09/20 23:15:33;;;;;;;3.58;1.65;;;18.20;66.80;;;;;;10074081;29;20446;-56
2022/09/20 23:20:34;;;;;;;3.85;2.20;;;18.20;66.70;;;;;;10101895;29;20179;-56
2022/09/20 23:25:35;;;;;;;3.20;1.38;;;18.20;66.60;;;;;;10075585;29;20548;-56
2022/09/20 23:30:35;;;;;;;4.30;2.03;;;18.20;66.60;;;;;;10074907;29;20104;-55
2022/09/20 23:35:43;;;;;;;3.88;1.80;;;18.10;66.50;;;;;;10075305;29;20096;-55
2022/09/20 23:40:44;;;;;;;2.97;1.52;;;18.20;66.50;;;;;;10062401;29;20037;-56
2022/09/20 23:45:45;;;;;;;5.63;1.95;;;18.20;66.50;;;;;;10091040;29;20048;-57
2022/09/20 23:50:46;;;;;;;3.42;1.70;;;18.20;66.60;;;;;;10058713;29;20646;-57
2022/09/20 23:55:47;;;;;;;3.53;1.48;;;18.10;66.40;;;;;;10090716;29;20045;-56
